createdAt,value
2018-05-02T00:00:03.971Z,1.80
2018-05-02T00:03:09.213Z,1.47
2018-05-02T00:06:14.438Z,1.67
2018-05-02T00:09:19.533Z,1.30
2018-05-02T00:12:26.203Z,2.27
2018-05-02T00:15:33.132Z,1.50
2018-05-02T00:18:39.999Z,1.57
2018-05-02T00:21:46.785Z,1.47
2018-05-02T00:24:52.394Z,2.30
2018-05-02T00:27:57.593Z,1.40
2018-05-02T00:31:03.290Z,1.70
2018-05-02T00:34:09.512Z,1.60
2018-05-02T00:37:16.399Z,1.50
2018-05-02T00:40:22.627Z,1.80
2018-05-02T00:43:28.509Z,2.00
2018-05-02T00:46:33.709Z,1.63
2018-05-02T00:49:38.913Z,1.77
2018-05-02T00:52:44.117Z,2.47
2018-05-02T00:55:50.225Z,2.00
2018-05-02T00:58:55.984Z,2.20
2018-05-02T01:02:02.818Z,1.53
2018-05-02T01:05:09.849Z,2.10
2018-05-02T01:08:15.528Z,2.00
2018-05-02T01:11:21.560Z,1.60
2018-05-02T01:14:26.921Z,1.80
2018-05-02T01:17:33.070Z,2.40
2018-05-02T01:20:38.693Z,1.53
2018-05-02T01:23:43.624Z,1.60
2018-05-02T01:26:48.818Z,1.90
2018-05-02T01:29:54.045Z,1.47
2018-05-02T01:32:59.441Z,2.13
2018-05-02T01:36:04.305Z,1.80
2018-05-02T01:39:10.541Z,1.70
2018-05-02T01:42:16.370Z,1.60
2018-05-02T01:45:21.581Z,1.50
2018-05-02T01:48:27.289Z,1.93
2018-05-02T01:51:32.220Z,1.70
2018-05-02T01:54:37.422Z,1.87
2018-05-02T01:57:43.529Z,2.20
2018-05-02T02:00:50.089Z,1.77
2018-05-02T02:03:56.252Z,1.70
2018-05-02T02:07:02.409Z,1.50
2018-05-02T02:10:08.173Z,1.73
2018-05-02T02:13:14.633Z,1.90
2018-05-02T02:16:20.422Z,1.50
2018-05-02T02:19:27.445Z,1.90
2018-05-02T02:22:33.088Z,1.63
2018-05-02T02:25:39.245Z,1.20
2018-05-02T02:28:46.009Z,1.80
2018-05-02T02:31:52.161Z,1.50
2018-05-02T02:34:58.272Z,1.97
2018-05-02T02:38:04.617Z,1.60
2018-05-02T02:41:10.237Z,1.60
2018-05-02T02:44:16.348Z,1.57
2018-05-02T02:47:22.842Z,2.30
2018-05-02T02:50:28.640Z,1.67
2018-05-02T02:53:35.044Z,1.70
2018-05-02T02:56:40.885Z,1.27
2018-05-02T02:59:46.091Z,1.93
2018-05-02T03:02:52.616Z,1.40
2018-05-02T03:05:58.241Z,1.73
2018-05-02T03:09:05.116Z,1.70
2018-05-02T03:12:10.930Z,1.40
2018-05-02T03:15:17.070Z,1.70
2018-05-02T03:18:22.275Z,1.57
2018-05-02T03:21:28.397Z,1.40
2018-05-02T03:24:34.002Z,1.40
2018-05-02T03:27:41.185Z,1.67
2018-05-02T03:30:47.284Z,1.80
2018-05-02T03:33:54.313Z,1.80
2018-05-02T03:37:00.105Z,1.60
2018-05-02T03:40:04.994Z,1.50
2018-05-02T03:43:12.137Z,1.37
2018-05-02T03:46:17.959Z,1.10
2018-05-02T03:49:24.061Z,1.57
2018-05-02T03:52:29.669Z,1.67
2018-05-02T03:55:34.862Z,1.30
2018-05-02T03:58:41.960Z,1.47
2018-05-02T04:01:59.094Z,1.50
2018-05-02T04:05:15.182Z,1.37
2018-05-02T04:08:21.153Z,1.50
2018-05-02T04:11:26.780Z,1.50
2018-05-02T04:14:31.729Z,1.43
2018-05-02T04:17:36.933Z,1.17
2018-05-02T04:20:43.087Z,1.83
2018-05-02T04:23:48.691Z,1.57
2018-05-02T04:26:54.709Z,1.53
2018-05-02T04:30:00.161Z,1.43
2018-05-02T04:33:05.101Z,1.33
2018-05-02T04:36:11.638Z,1.50
2018-05-02T04:39:17.753Z,1.40
2018-05-02T04:42:24.641Z,1.30
2018-05-02T04:45:30.360Z,1.40
2018-05-02T04:48:35.625Z,1.63
2018-05-02T04:51:40.945Z,1.80
2018-05-02T04:54:46.863Z,1.60
2018-05-02T04:57:52.813Z,1.57
2018-05-02T05:00:58.842Z,1.50
2018-05-02T05:04:04.049Z,1.50
2018-05-02T05:07:10.198Z,1.67
2018-05-02T05:10:16.296Z,1.20
2018-05-02T05:13:22.411Z,1.37
2018-05-02T05:16:28.218Z,1.30
2018-05-02T05:19:34.373Z,1.30
2018-05-02T05:22:39.578Z,1.60
2018-05-02T05:25:44.826Z,1.70
2018-05-02T05:28:51.844Z,1.30
2018-05-02T05:31:57.979Z,1.63
2018-05-02T05:35:04.077Z,1.20
2018-05-02T05:38:11.085Z,1.40
2018-05-02T05:41:17.212Z,1.50
2018-05-02T05:44:22.418Z,1.47
2018-05-02T05:47:29.091Z,1.60
2018-05-02T05:50:34.693Z,1.50
2018-05-02T05:53:40.807Z,1.70
2018-05-02T05:56:46.005Z,1.50
2018-05-02T05:59:51.277Z,2.20
2018-05-02T06:02:56.482Z,2.07
2018-05-02T06:06:01.696Z,1.70
2018-05-02T06:09:07.998Z,1.70
2018-05-02T06:12:13.615Z,1.43
2018-05-02T06:15:20.639Z,1.77
2018-05-02T06:18:26.782Z,1.60
2018-05-02T06:21:31.977Z,1.60
2018-05-02T06:24:37.369Z,1.30
2018-05-02T06:27:42.596Z,1.93
2018-05-02T06:30:50.623Z,1.60
2018-05-02T06:33:56.469Z,1.50
2018-05-02T06:37:02.598Z,2.27
2018-05-02T06:40:09.111Z,1.73
2018-05-02T06:43:15.269Z,1.77
2018-05-02T06:46:20.469Z,1.50
2018-05-02T06:49:27.281Z,1.67
2018-05-02T06:52:32.467Z,1.70
2018-05-02T06:55:38.555Z,1.83
2018-05-02T06:58:44.665Z,1.87
2018-05-02T07:01:49.666Z,1.90
2018-05-02T07:04:55.772Z,1.87
2018-05-02T07:08:01.609Z,1.50
2018-05-02T07:11:06.812Z,1.60
2018-05-02T07:14:12.013Z,1.40
2018-05-02T07:17:17.211Z,1.60
2018-05-02T07:20:23.313Z,2.00
2018-05-02T07:23:29.424Z,1.60
2018-05-02T07:26:35.648Z,1.60
2018-05-02T07:29:40.846Z,1.80
2018-05-02T07:32:47.166Z,2.10
2018-05-02T07:35:52.449Z,1.93
2018-05-02T07:38:58.570Z,1.93
2018-05-02T07:42:04.247Z,2.07
2018-05-02T07:45:09.595Z,2.73
2018-05-02T07:48:14.790Z,2.30
2018-05-02T07:51:19.989Z,2.70
2018-05-02T07:54:25.192Z,2.50
2018-05-02T07:57:31.288Z,4.80
2018-05-02T08:00:37.111Z,3.07
2018-05-02T08:03:42.309Z,3.37
2018-05-02T08:06:48.845Z,4.30
2018-05-02T08:09:55.885Z,3.73
2018-05-02T08:13:02.030Z,3.50
2018-05-02T08:16:09.069Z,3.90
2018-05-02T08:19:16.173Z,4.37
2018-05-02T08:22:22.893Z,4.50
2018-05-02T08:25:29.921Z,3.60
2018-05-02T08:28:36.044Z,4.20
2018-05-02T08:31:42.159Z,4.37
2018-05-02T08:34:47.574Z,4.10
2018-05-02T08:37:52.773Z,4.23
2018-05-02T08:40:57.737Z,4.27
2018-05-02T08:44:02.618Z,4.40
2018-05-02T08:47:08.357Z,5.03
2018-05-02T08:50:13.285Z,4.70
2018-05-02T08:53:18.923Z,5.00
2018-05-02T08:56:25.854Z,4.40
2018-05-02T08:59:31.701Z,5.30
2018-05-02T09:02:38.543Z,4.90
2018-05-02T09:05:43.765Z,5.50
2018-05-02T09:08:49.883Z,5.03
2018-05-02T09:11:56.766Z,5.47
2018-05-02T09:15:03.086Z,4.63
2018-05-02T09:18:08.805Z,4.87
2018-05-02T09:21:14.754Z,5.30
2018-05-02T09:24:20.597Z,5.80
2018-05-02T09:27:27.737Z,5.37
2018-05-02T09:30:34.469Z,5.17
2018-05-02T09:33:41.513Z,5.80
2018-05-02T09:36:48.573Z,5.43
2018-05-02T09:39:54.422Z,5.80
2018-05-02T09:43:00.554Z,5.87
2018-05-02T09:46:06.903Z,5.33
2018-05-02T09:49:12.104Z,4.70
2018-05-02T09:52:17.592Z,5.10
2018-05-02T09:55:22.803Z,5.17
2018-05-02T09:58:28.236Z,5.33
2018-05-02T10:01:35.330Z,5.83
2018-05-02T10:04:42.373Z,4.80
2018-05-02T10:07:48.184Z,4.90
2018-05-02T10:10:54.105Z,4.50
2018-05-02T10:13:59.714Z,4.60
2018-05-02T10:17:04.680Z,4.90
2018-05-02T10:20:09.613Z,4.23
2018-05-02T10:23:15.342Z,2.80
2018-05-02T10:26:21.332Z,3.93
2018-05-02T10:29:26.686Z,4.13
2018-05-02T10:32:32.820Z,4.00
2018-05-02T10:35:38.034Z,4.60
2018-05-02T10:38:44.430Z,4.20
2018-05-02T10:41:51.181Z,3.60
2018-05-02T10:44:57.293Z,3.87
2018-05-02T10:48:02.913Z,4.37
2018-05-02T10:51:09.375Z,4.27
2018-05-02T10:54:15.393Z,4.77
2018-05-02T10:57:20.685Z,4.00
2018-05-02T11:00:25.953Z,4.27
2018-05-02T11:03:31.668Z,4.13
2018-05-02T11:06:37.167Z,4.10
2018-05-02T11:09:42.370Z,3.70
2018-05-02T11:12:48.999Z,4.90
2018-05-02T11:15:54.856Z,4.70
2018-05-02T11:18:59.449Z,3.73
2018-05-02T11:22:04.480Z,3.40
2018-05-02T11:25:09.865Z,4.83
2018-05-02T11:28:15.659Z,5.17
2018-05-02T11:31:21.007Z,4.77
2018-05-02T11:34:27.138Z,4.57
2018-05-02T11:37:32.344Z,4.13
2018-05-02T11:40:38.628Z,5.23
2018-05-02T11:43:44.845Z,4.93
2018-05-02T11:46:50.139Z,4.60
2018-05-02T11:49:56.309Z,5.03
2018-05-02T11:53:01.525Z,4.37
2018-05-02T11:56:08.576Z,4.23
2018-05-02T11:59:14.709Z,3.83
2018-05-02T12:02:19.916Z,4.27
2018-05-02T12:05:25.150Z,3.93
2018-05-02T12:08:32.209Z,3.80
2018-05-02T12:11:39.269Z,4.07
2018-05-02T12:14:46.241Z,4.13
2018-05-02T12:17:53.305Z,4.50
2018-05-02T12:21:00.447Z,3.70
2018-05-02T12:24:06.022Z,4.40
2018-05-02T12:27:13.079Z,3.70
2018-05-02T12:30:19.210Z,3.43
2018-05-02T12:33:25.234Z,3.93
2018-05-02T12:36:32.171Z,4.53
2018-05-02T12:39:38.221Z,3.73
2018-05-02T12:42:45.306Z,3.50
2018-05-02T12:45:50.514Z,4.00
2018-05-02T12:48:55.742Z,4.27
2018-05-02T12:52:01.963Z,3.57
2018-05-02T12:55:07.895Z,4.40
2018-05-02T12:58:13.302Z,3.90
2018-05-02T13:01:18.931Z,4.53
2018-05-02T13:04:25.069Z,4.27
2018-05-02T13:07:30.282Z,3.53
2018-05-02T13:10:35.491Z,4.57
2018-05-02T13:13:42.624Z,4.00
2018-05-02T13:16:48.454Z,4.00
2018-05-02T13:19:54.387Z,4.00
2018-05-02T13:23:00.535Z,3.23
2018-05-02T13:26:06.069Z,3.93
2018-05-02T13:29:11.198Z,4.10
2018-05-02T13:32:18.067Z,3.50
2018-05-02T13:35:24.169Z,3.80
2018-05-02T13:38:30.283Z,3.40
2018-05-02T13:41:36.815Z,3.70
2018-05-02T13:44:43.868Z,3.07
2018-05-02T13:47:50.091Z,2.80
2018-05-02T13:50:55.914Z,4.60
2018-05-02T13:54:02.083Z,3.33
2018-05-02T13:57:07.381Z,3.30
2018-05-02T14:00:12.592Z,3.40
2018-05-02T14:03:18.257Z,3.13
2018-05-02T14:06:23.465Z,3.10
2018-05-02T14:09:29.242Z,2.90
2018-05-02T14:12:35.352Z,3.00
2018-05-02T14:15:40.969Z,2.90
2018-05-02T14:18:46.210Z,3.27
2018-05-02T14:21:51.418Z,3.00
2018-05-02T14:24:56.634Z,3.47
2018-05-02T14:28:01.843Z,2.80
2018-05-02T14:31:07.059Z,3.40
2018-05-02T14:34:13.889Z,3.13
2018-05-02T14:37:19.712Z,2.70
2018-05-02T14:40:25.822Z,2.63
2018-05-02T14:43:31.461Z,2.87
2018-05-02T14:46:37.610Z,2.70
2018-05-02T14:49:44.657Z,2.70
2018-05-02T14:52:51.665Z,2.57
2018-05-02T14:55:57.799Z,2.77
2018-05-02T14:59:03.966Z,2.33
2018-05-02T15:02:11.101Z,2.27
2018-05-02T15:05:17.946Z,2.43
2018-05-02T15:08:24.105Z,2.87
2018-05-02T15:11:30.266Z,2.40
2018-05-02T15:14:35.502Z,2.33
2018-05-02T15:17:40.709Z,2.20
2018-05-02T15:20:45.693Z,2.50
2018-05-02T15:23:50.905Z,1.90
2018-05-02T15:26:56.580Z,2.80
2018-05-02T15:30:02.689Z,2.10
2018-05-02T15:33:08.599Z,1.90
2018-05-02T15:36:13.812Z,2.00
2018-05-02T15:39:19.016Z,2.10
2018-05-02T15:42:25.156Z,2.20
2018-05-02T15:45:32.292Z,2.47
2018-05-02T15:48:37.787Z,2.60
2018-05-02T15:51:43.513Z,2.30
2018-05-02T15:54:48.774Z,2.40
2018-05-02T15:57:54.031Z,2.57
2018-05-02T16:01:01.132Z,2.20
2018-05-02T16:04:06.696Z,2.30
2018-05-02T16:07:12.047Z,2.83
2018-05-02T16:10:17.289Z,2.90
2018-05-02T16:13:22.497Z,3.40
2018-05-02T16:16:27.764Z,3.47
2018-05-02T16:19:32.883Z,3.20
2018-05-02T16:22:38.097Z,2.80
2018-05-02T16:25:43.305Z,3.70
2018-05-02T16:28:49.433Z,3.10
2018-05-02T16:31:56.549Z,4.43
2018-05-02T16:35:02.376Z,3.57
2018-05-02T16:38:07.681Z,3.70
2018-05-02T16:41:12.894Z,3.13
2018-05-02T16:44:18.106Z,2.80
2018-05-02T16:47:23.069Z,2.97
2018-05-02T16:50:28.282Z,3.10
2018-05-02T16:53:34.069Z,3.07
2018-05-02T16:56:40.257Z,3.73
2018-05-02T16:59:46.518Z,3.73
2018-05-02T17:02:51.739Z,3.10
2018-05-02T17:05:58.102Z,3.03
2018-05-02T17:09:03.491Z,4.20
2018-05-02T17:12:09.639Z,3.27
2018-05-02T17:15:14.849Z,3.70
2018-05-02T17:18:20.103Z,3.30
2018-05-02T17:21:25.346Z,3.30
2018-05-02T17:24:30.713Z,3.80
2018-05-02T17:27:35.914Z,3.30
2018-05-02T17:30:42.029Z,3.53
2018-05-02T17:33:47.952Z,3.50
2018-05-02T17:36:54.368Z,3.70
2018-05-02T17:39:59.736Z,3.43
2018-05-02T17:43:04.637Z,3.33
2018-05-02T17:46:10.768Z,3.10
2018-05-02T17:49:17.920Z,3.57
2018-05-02T17:52:24.773Z,3.30
2018-05-02T17:55:31.602Z,3.57
2018-05-02T17:58:38.745Z,4.47
2018-05-02T18:01:44.604Z,3.60
2018-05-02T18:04:51.546Z,4.10
2018-05-02T18:07:57.362Z,3.70
2018-05-02T18:11:03.481Z,2.93
2018-05-02T18:14:09.634Z,3.13
2018-05-02T18:17:15.777Z,3.40
2018-05-02T18:20:21.894Z,2.53
2018-05-02T18:23:27.596Z,3.30
2018-05-02T18:26:33.713Z,3.10
2018-05-02T18:29:38.921Z,4.00
2018-05-02T18:32:44.555Z,3.00
2018-05-02T18:35:50.719Z,3.20
2018-05-02T18:38:55.925Z,2.70
2018-05-02T18:42:02.050Z,4.17
2018-05-02T18:45:07.679Z,3.00
2018-05-02T18:48:12.882Z,3.43
2018-05-02T18:51:19.509Z,4.00
2018-05-02T18:54:25.689Z,2.60
2018-05-02T18:57:31.723Z,3.37
2018-05-02T19:00:37.837Z,3.00
2018-05-02T19:03:43.473Z,3.40
2018-05-02T19:06:50.606Z,2.70
2018-05-02T19:09:56.429Z,2.93
2018-05-02T19:13:03.370Z,2.60
2018-05-02T19:16:10.486Z,3.40
2018-05-02T19:19:21.705Z,3.10
2018-05-02T19:22:26.917Z,3.47
2018-05-02T19:25:37.385Z,3.30
2018-05-02T19:28:43.404Z,2.63
2018-05-02T19:31:54.588Z,3.10
2018-05-02T19:35:00.533Z,3.03
2018-05-02T19:38:06.653Z,2.80
2018-05-02T19:41:18.027Z,2.77
2018-05-02T19:44:23.854Z,2.67
2018-05-02T19:47:30.894Z,2.87
2018-05-02T19:50:36.509Z,3.33
2018-05-02T19:53:42.732Z,3.53
2018-05-02T19:56:49.489Z,2.27
2018-05-02T19:59:55.600Z,3.10
2018-05-02T20:03:01.193Z,2.37
2018-05-02T20:06:07.037Z,2.77
2018-05-02T20:09:17.522Z,3.30
2018-05-02T20:12:28.964Z,2.70
2018-05-02T20:15:36.021Z,3.50
2018-05-02T20:18:42.193Z,2.77
2018-05-02T20:21:47.405Z,3.00
2018-05-02T20:24:52.695Z,2.73
2018-05-02T20:27:58.801Z,2.77
2018-05-02T20:31:04.009Z,3.10
2018-05-02T20:34:09.223Z,2.87
2018-05-02T20:37:14.844Z,2.60
2018-05-02T20:40:20.057Z,2.30
2018-05-02T20:43:25.264Z,2.30
2018-05-02T20:46:31.863Z,3.10
2018-05-02T20:49:38.061Z,2.57
2018-05-02T20:52:44.175Z,2.33
2018-05-02T20:55:51.001Z,2.80
2018-05-02T20:58:57.177Z,2.73
2018-05-02T21:02:02.390Z,3.30
2018-05-02T21:05:07.785Z,2.97
2018-05-02T21:08:13.641Z,2.80
2018-05-02T21:11:19.437Z,3.10
2018-05-02T21:14:26.186Z,2.93
2018-05-02T21:17:32.021Z,3.73
2018-05-02T21:20:37.313Z,3.23
2018-05-02T21:23:42.678Z,2.83
2018-05-02T21:26:49.354Z,3.57
2018-05-02T21:29:55.546Z,3.67
2018-05-02T21:33:02.409Z,3.00
2018-05-02T21:36:08.526Z,3.13
2018-05-02T21:39:15.351Z,3.00
2018-05-02T21:42:21.481Z,3.07
2018-05-02T21:45:27.619Z,3.57
2018-05-02T21:48:33.543Z,3.20
2018-05-02T21:51:40.394Z,3.20
2018-05-02T21:54:46.548Z,2.97
2018-05-02T21:57:51.808Z,3.33
2018-05-02T22:00:57.027Z,3.23
2018-05-02T22:04:03.677Z,3.50
2018-05-02T22:07:10.433Z,2.90
2018-05-02T22:10:16.044Z,3.07
2018-05-02T22:13:21.254Z,3.10
2018-05-02T22:16:26.868Z,2.63
2018-05-02T22:19:32.912Z,3.30
2018-05-02T22:22:39.014Z,3.23
2018-05-02T22:25:44.654Z,3.60
2018-05-02T22:28:50.600Z,2.73
2018-05-02T22:31:57.595Z,3.27
2018-05-02T22:35:03.724Z,3.30
2018-05-02T22:38:10.536Z,2.60
2018-05-02T22:41:17.657Z,3.60
2018-05-02T22:44:23.553Z,3.07
2018-05-02T22:47:29.421Z,3.17
2018-05-02T22:50:36.450Z,2.57
2018-05-02T22:53:42.589Z,3.00
2018-05-02T22:56:48.733Z,3.00
2018-05-02T22:59:54.841Z,3.20
2018-05-02T23:03:00.982Z,3.30
2018-05-02T23:06:06.181Z,3.13
2018-05-02T23:09:11.807Z,3.20
2018-05-02T23:12:17.784Z,3.40
2018-05-02T23:15:24.645Z,2.80
2018-05-02T23:18:30.768Z,3.30
2018-05-02T23:21:36.901Z,3.30
2018-05-02T23:24:42.754Z,3.30
2018-05-02T23:27:48.880Z,2.50
2018-05-02T23:30:54.294Z,3.07
2018-05-02T23:33:59.506Z,2.87
2018-05-02T23:37:04.485Z,3.10
2018-05-02T23:40:09.718Z,3.90
2018-05-02T23:43:14.918Z,2.73
2018-05-02T23:46:20.120Z,2.77
2018-05-02T23:49:25.365Z,4.00
2018-05-02T23:52:30.589Z,2.90
2018-05-02T23:55:36.701Z,3.33
2018-05-02T23:58:42.817Z,3.67
